Time;durP1;ratioP1;P1;durP2;ratioP2;P2;SDS_P1;SDS_P2;PMS_P1;PMS_P2;Temp;Humidity;BMP_temperature;BMP_pressure;BME280_temperature;BME280_humidity;BME280_pressure;Samples;Min_cycle;Max_cycle;Signal;HPM_P1;HPM_P2
2022/11/17 00:00:17;;;;;;;;;13.50;4.50;;;;;14.58;63.84;98036.56;5075517;27;45605;-45
2022/11/17 00:02:43;;;;;;;;;10.25;3.50;;;;;14.60;63.89;98031.97;5088468;27;45366;-44
2022/11/17 00:05:08;;;;;;;;;5.50;3.00;;;;;14.60;64.09;98008.28;5077701;27;45406;-44
2022/11/17 00:07:34;;;;;;;;;12.75;4.25;;;;;14.60;63.97;98029.34;5081028;27;45343;-43
2022/11/17 00:09:59;;;;;;;;;10.75;4.25;;;;;14.60;63.90;98018.00;5079611;27;45339;-48
2022/11/17 00:15:09;;;;;;;;;5.50;5.00;;;;;14.61;63.66;98025.75;5076201;28;45409;-43
2022/11/17 00:17:34;;;;;;;;;11.50;3.75;;;;;14.61;63.38;98022.31;5062677;28;47825;-46
2022/11/17 00:22:43;;;;;;;;;8.25;4.00;;;;;14.63;62.97;98019.53;5080498;27;45405;-44
2022/11/17 00:25:09;;;;;;;;;13.50;3.75;;;;;14.63;62.68;98030.06;5080106;27;45279;-44
2022/11/17 00:27:35;;;;;;;;;11.00;4.50;;;;;14.61;62.97;98033.66;5070056;27;45462;-45
2022/11/17 00:30:00;;;;;;;;;4.50;4.00;;;;;14.60;63.11;98031.16;5052187;28;45702;-46
2022/11/17 00:35:09;;;;;;;;;5.00;3.00;;;;;14.59;62.93;98040.03;5074961;27;45456;-49
2022/11/17 00:37:37;;;;;;;;;7.00;2.75;;;;;14.60;63.14;98039.06;5078930;28;69750;-45
2022/11/17 00:40:05;;;;;;;;;10.25;3.50;;;;;14.58;63.09;98033.91;5076189;27;45719;-46
2022/11/17 00:42:31;;;;;;;;;2.25;2.25;;;;;14.57;63.16;98041.91;5077268;28;45272;-44
2022/11/17 00:44:56;;;;;;;;;7.00;2.25;;;;;14.55;62.85;98035.94;5089014;27;45468;-44
2022/11/17 00:47:22;;;;;;;;;7.50;3.25;;;;;14.56;62.48;98035.81;5075731;27;45455;-47
2022/11/17 00:49:47;;;;;;;;;5.75;3.25;;;;;14.56;62.97;98045.53;5111639;27;50189;-44
2022/11/17 00:52:13;;;;;;;;;6.25;2.25;;;;;14.53;62.87;98033.44;5079037;28;45441;-44
2022/11/17 00:54:38;;;;;;;;;3.50;3.50;;;;;14.54;62.67;98045.66;5080156;27;65425;-44
2022/11/17 00:57:04;;;;;;;;;8.50;2.50;;;;;14.55;63.02;98039.41;5070003;28;48270;-45
2022/11/17 00:59:29;;;;;;;;;11.00;3.25;;;;;14.55;62.74;98031.50;5079610;27;45542;-46
2022/11/17 01:01:54;;;;;;;;;3.75;2.00;;;;;14.55;62.61;98038.59;5080911;27;46090;-46
2022/11/17 01:04:20;;;;;;;;;4.00;3.00;;;;;14.55;62.29;98039.41;5068808;27;58833;-48
2022/11/17 01:06:47;;;;;;;;;6.50;2.50;;;;;14.56;62.36;98045.53;5071545;27;47861;-47
2022/11/17 01:09:18;;;;;;;;;8.50;1.50;;;;;14.58;61.37;98039.19;5077815;27;45301;-46
2022/11/17 01:11:44;;;;;;;;;3.00;1.25;;;;;14.58;62.28;98041.00;5081049;27;45265;-45
2022/11/17 01:14:15;;;;;;;;;4.00;1.50;;;;;14.58;61.97;98046.25;5078583;27;45476;-48
2022/11/17 01:16:40;;;;;;;;;8.50;3.00;;;;;14.56;61.75;98051.63;5079303;27;45308;-48
2022/11/17 01:19:06;;;;;;;;;2.75;1.25;;;;;14.55;61.02;98049.94;5074979;27;45435;-47
2022/11/17 01:21:31;;;;;;;;;3.00;2.00;;;;;14.56;61.53;98062.13;5080066;27;55955;-47
2022/11/17 01:23:59;;;;;;;;;3.75;1.00;;;;;14.56;61.45;98062.13;5066722;27;45516;-43
2022/11/17 01:26:31;;;;;;;;;0.75;0.75;;;;;14.57;61.07;98062.97;5071944;28;46206;-46
2022/11/17 01:28:57;;;;;;;;;3.00;1.25;;;;;14.57;61.04;98076.97;5082187;27;45246;-45
2022/11/17 01:31:25;;;;;;;;;5.00;1.50;;;;;14.60;60.78;98076.72;5080702;28;45504;-45
2022/11/17 01:33:51;;;;;;;;;2.00;2.00;;;;;14.63;60.80;98085.34;5080519;27;45377;-45
2022/11/17 01:36:20;;;;;;;;;7.50;1.50;;;;;14.64;59.99;98098.34;5079129;27;45386;-44
2022/11/17 01:38:45;;;;;;;;;2.25;0.75;;;;;14.64;60.73;98094.88;5078386;28;45637;-45
2022/11/17 01:41:16;;;;;;;;;4.25;0.75;;;;;14.63;59.73;98099.34;5064586;27;50879;-48
2022/11/17 01:43:49;;;;;;;;;3.75;1.00;;;;;14.65;60.23;98112.38;5069783;27;45517;-46
2022/11/17 01:46:30;;;;;;;;;2.25;0.50;;;;;14.64;60.08;98113.31;5078484;27;46504;-46
2022/11/17 01:49:04;;;;;;;;;1.50;0.25;;;;;14.62;60.02;98126.59;5077175;27;45629;-44
2022/11/17 01:51:32;;;;;;;;;2.75;0.00;;;;;14.64;59.79;98118.59;5079906;27;45329;-44
2022/11/17 01:53:58;;;;;;;;;2.00;0.75;;;;;14.63;59.66;98127.47;5053489;28;45570;-45
2022/11/17 01:56:27;;;;;;;;;1.00;0.50;;;;;14.63;59.32;98123.03;5076718;28;47040;-44
2022/11/17 01:58:57;;;;;;;;;2.00;0.00;;;;;14.63;59.56;98122.19;5074261;28;45287;-44
2022/11/17 02:01:23;;;;;;;;;1.00;0.50;;;;;14.65;59.55;98138.69;5077134;27;45474;-44
2022/11/17 02:03:49;;;;;;;;;1.50;0.25;;;;;14.65;59.80;98141.31;5076475;27;56091;-46
2022/11/17 02:06:19;;;;;;;;;0.50;0.00;;;;;14.60;59.43;98126.72;5070184;28;45962;-45
2022/11/17 02:08:46;;;;;;;;;2.50;0.00;;;;;14.61;59.18;98128.41;5075968;28;45646;-47
2022/11/17 02:11:14;;;;;;;;;3.50;0.50;;;;;14.61;59.38;98133.69;5078566;28;45247;-46
2022/11/17 02:13:40;;;;;;;;;3.25;1.00;;;;;14.63;59.28;98144.06;5073832;28;45564;-50
2022/11/17 02:16:10;;;;;;;;;0.00;0.00;;;;;14.65;59.82;98141.31;5077253;27;63616;-47
2022/11/17 02:18:36;;;;;;;;;0.25;0.00;;;;;14.65;59.49;98144.78;5074280;27;45399;-54
2022/11/17 02:21:04;;;;;;;;;7.25;1.00;;;;;14.66;59.83;98149.09;5073623;27;58373;-46
2022/11/17 02:23:32;;;;;;;;;1.00;0.00;;;;;14.65;58.76;98146.59;5072934;27;45339;-44
2022/11/17 02:26:14;;;;;;;;;6.00;0.50;;;;;14.64;59.16;98147.53;5077730;27;45446;-44
2022/11/17 02:28:56;;;;;;;;;3.00;1.25;;;;;14.64;59.36;98147.53;5078339;28;45751;-44
2022/11/17 02:31:32;;;;;;;;;4.75;0.50;;;;;14.63;59.15;98145.88;5071435;28;45354;-50
2022/11/17 02:34:30;;;;;;;;;2.50;0.50;;;;;14.63;59.15;98145.88;5073867;27;45272;-46
2022/11/17 02:37:10;;;;;;;;;2.50;2.00;;;;;14.64;59.30;98151.00;5090761;27;45433;-45
2022/11/17 02:39:46;;;;;;;;;3.00;1.00;;;;;14.64;59.39;98160.69;5078373;28;45472;-45
2022/11/17 02:45:23;;;;;;;;;0.00;0.00;;;;;14.60;58.78;98178.53;5075643;27;45318;-44
2022/11/17 02:47:49;;;;;;;;;1.50;0.00;;;;;14.57;58.66;98177.00;5078570;27;45355;-44
2022/11/17 02:50:16;;;;;;;;;3.50;0.50;;;;;14.57;58.29;98179.63;5060634;28;45775;-44
2022/11/17 02:52:41;;;;;;;;;4.25;0.00;;;;;14.56;58.60;98183.22;5066365;27;57526;-44
2022/11/17 02:55:09;;;;;;;;;0.50;0.00;;;;;14.58;57.96;98175.22;5078359;28;61898;-50
2022/11/17 02:57:36;;;;;;;;;3.00;0.00;;;;;14.56;58.54;98182.38;5054505;28;46238;-49
2022/11/17 03:00:14;;;;;;;;;3.00;0.00;;;;;14.55;58.08;98194.69;5069432;27;45689;-45
2022/11/17 03:02:39;;;;;;;;;4.00;0.00;;;;;14.54;58.04;98193.03;5068591;28;45341;-46
2022/11/17 03:05:25;;;;;;;;;1.33;0.00;;;;;14.54;57.54;98192.22;5071507;27;45314;-46
2022/11/17 03:08:08;;;;;;;;;2.00;0.00;;;;;14.52;58.34;98199.38;5077110;27;46121;-46
2022/11/17 03:10:45;;;;;;;;;1.00;1.00;;;;;14.49;57.27;98199.66;5072724;27;45725;-46
2022/11/17 03:13:12;;;;;;;;;1.00;0.00;;;;;14.43;57.79;98204.47;5080612;27;45458;-46
2022/11/17 03:15:55;;;;;;;;;1.00;0.00;;;;;14.40;58.60;98204.72;5073647;27;45448;-45
2022/11/17 03:18:20;;;;;;;;;0.75;0.75;;;;;14.36;58.92;98234.88;5079375;27;46627;-44
2022/11/17 03:21:17;;;;;;;;;0.00;0.00;;;;;14.34;59.54;98235.94;5092202;27;45206;-45
2022/11/17 03:23:52;;;;;;;;;2.50;0.00;;;;;14.32;59.64;98256.28;5075534;27;45614;-46
2022/11/17 03:26:30;;;;;;;;;3.75;1.00;;;;;14.29;59.84;98260.03;5076239;28;45276;-44
2022/11/17 03:28:56;;;;;;;;;0.50;0.50;;;;;14.23;60.64;98274.50;5070597;27;47094;-46
2022/11/17 03:31:23;;;;;;;;;2.00;0.00;;;;;14.18;60.42;98288.97;5066395;27;70173;-44
2022/11/17 03:33:48;;;;;;;;;2.00;0.50;;;;;14.08;61.37;98301.19;5073946;27;45652;-44
2022/11/17 03:36:25;;;;;;;;;0.00;0.00;;;;;13.99;61.73;98298.38;5078050;27;52582;-44
2022/11/17 03:38:59;;;;;;;;;0.00;0.00;;;;;13.93;61.80;98298.03;5074580;27;45465;-47
2022/11/17 03:41:27;;;;;;;;;0.75;0.75;;;;;13.85;62.41;98288.13;5080312;28;45540;-44
2022/11/17 03:43:55;;;;;;;;;0.00;0.00;;;;;13.74;62.42;98302.13;5081296;27;45313;-44
2022/11/17 03:46:22;;;;;;;;;1.00;0.00;;;;;13.68;62.61;98307.84;5073568;27;45423;-44
2022/11/17 03:48:52;;;;;;;;;1.75;0.00;;;;;13.65;62.38;98311.56;5078961;28;46156;-46
2022/11/17 03:51:26;;;;;;;;;1.00;0.00;;;;;13.63;62.47;98320.53;5080657;27;45424;-44
2022/11/17 03:53:53;;;;;;;;;0.00;0.00;;;;;13.59;62.83;98335.69;5071673;27;45436;-45
2022/11/17 03:56:37;;;;;;;;;1.00;0.00;;;;;13.59;63.11;98337.50;5072614;27;45610;-43
2022/11/17 03:59:10;;;;;;;;;1.00;0.00;;;;;13.55;62.54;98330.81;5073666;28;45554;-47
2022/11/17 04:01:35;;;;;;;;;1.75;0.00;;;;;13.51;63.27;98340.72;5079906;27;45719;-48
2022/11/17 04:04:01;;;;;;;;;0.00;0.00;;;;;13.47;63.30;98342.75;5079719;27;45250;-47
2022/11/17 04:06:26;;;;;;;;;0.75;0.75;;;;;13.46;63.34;98353.38;5080858;27;64654;-44
2022/11/17 04:08:52;;;;;;;;;0.00;0.00;;;;;13.43;62.89;98354.44;5070191;27;46133;-46
2022/11/17 04:16:45;;;;;;;;;1.25;0.00;;;;;13.37;63.54;98356.69;5076656;28;45352;-44
2022/11/17 04:19:10;;;;;;;;;0.00;0.00;;;;;13.38;62.97;98368.88;5081102;27;46083;-45
2022/11/17 04:21:36;;;;;;;;;1.00;0.00;;;;;13.39;63.31;98366.16;5071400;28;68894;-44
2022/11/17 04:24:01;;;;;;;;;0.25;0.00;;;;;13.40;62.96;98359.09;5079497;28;63803;-45
2022/11/17 04:29:10;;;;;;;;;0.00;0.00;;;;;13.42;62.78;98372.94;5076866;28;45752;-47
2022/11/17 04:31:35;;;;;;;;;0.00;0.00;;;;;13.42;62.64;98370.31;5079101;27;71104;-45
2022/11/17 04:34:03;;;;;;;;;0.00;0.00;;;;;13.45;62.37;98378.78;5079362;27;53917;-46
2022/11/17 04:36:31;;;;;;;;;2.00;0.00;;;;;13.45;62.63;98378.78;5076222;27;45371;-48
2022/11/17 04:38:58;;;;;;;;;2.00;0.00;;;;;13.45;62.17;98384.06;5080861;27;46424;-46
2022/11/17 04:44:12;;;;;;;;;0.00;0.00;;;;;13.43;62.53;98393.00;5077691;28;45451;-45
2022/11/17 04:46:38;;;;;;;;;1.50;0.00;;;;;13.40;62.19;98399.34;5076722;27;45541;-49
2022/11/17 04:49:05;;;;;;;;;0.00;0.00;;;;;13.38;62.65;98408.28;5078997;27;46161;-47
2022/11/17 04:51:31;;;;;;;;;2.00;0.00;;;;;13.35;62.75;98417.25;5071813;27;45591;-49
2022/11/17 04:53:57;;;;;;;;;1.00;0.00;;;;;13.30;62.25;98419.34;5078986;27;45355;-48
2022/11/17 04:56:23;;;;;;;;;0.00;0.00;;;;;13.25;62.60;98422.31;5079864;28;45573;-46
2022/11/17 04:58:49;;;;;;;;;0.00;0.00;;;;;13.23;62.62;98429.47;5078546;27;46296;-48
2022/11/17 05:01:17;;;;;;;;;0.00;0.00;;;;;13.23;62.85;98428.66;5063779;28;45264;-46
2022/11/17 05:03:46;;;;;;;;;1.50;0.00;;;;;13.25;62.72;98426.75;5067679;28;45711;-45
2022/11/17 05:06:21;;;;;;;;;0.00;0.00;;;;;13.24;62.31;98449.56;5069981;28;45376;-46
2022/11/17 05:08:47;;;;;;;;;0.50;0.50;;;;;13.23;62.67;98444.41;5065551;27;46107;-46
2022/11/17 05:13:58;;;;;;;;;0.00;0.00;;;;;13.24;62.90;98454.81;5074495;27;45294;-43
2022/11/17 05:19:11;;;;;;;;;1.00;0.00;;;;;13.24;62.82;98453.94;5074444;27;45817;-46
2022/11/17 05:21:37;;;;;;;;;0.00;0.00;;;;;13.24;62.73;98452.19;5090612;27;45656;-48
2022/11/17 05:24:03;;;;;;;;;0.00;0.00;;;;;13.21;62.45;98464.69;5072864;27;60664;-44
2022/11/17 05:26:30;;;;;;;;;0.25;0.00;;;;;13.22;62.23;98466.38;5077169;27;45295;-46
2022/11/17 05:28:57;;;;;;;;;0.00;0.00;;;;;13.21;62.43;98467.28;5077593;28;45576;-46
2022/11/17 05:31:23;;;;;;;;;0.00;0.00;;;;;13.18;62.35;98473.63;5068481;28;45828;-43
2022/11/17 05:33:49;;;;;;;;;2.00;0.00;;;;;13.15;62.49;98471.22;5081929;27;45397;-44
2022/11/17 05:36:14;;;;;;;;;0.50;0.50;;;;;13.13;62.68;98473.13;5079898;27;45613;-47
2022/11/17 05:38:40;;;;;;;;;1.00;0.00;;;;;13.11;62.14;98475.88;5063323;28;45337;-46
2022/11/17 05:41:05;;;;;;;;;1.00;1.00;;;;;13.11;62.54;98467.16;5081987;27;45227;-48
2022/11/17 05:43:31;;;;;;;;;1.00;1.00;;;;;13.11;62.74;98478.50;5071963;27;45435;-44
2022/11/17 05:45:56;;;;;;;;;1.50;0.00;;;;;13.11;62.37;98483.75;5068571;27;45186;-46
2022/11/17 05:48:21;;;;;;;;;1.25;1.25;;;;;13.09;62.41;98485.66;5077056;27;67922;-47
2022/11/17 05:50:47;;;;;;;;;1.00;1.00;;;;;13.08;62.06;98489.25;5074931;27;58525;-48
2022/11/17 05:53:12;;;;;;;;;1.00;0.00;;;;;13.05;62.03;98494.72;5078577;28;45398;-44
2022/11/17 05:55:37;;;;;;;;;4.50;0.00;;;;;13.05;61.96;98494.72;5069008;27;61115;-45
2022/11/17 05:58:08;;;;;;;;;0.00;0.00;;;;;13.05;62.36;98501.72;5067196;27;59935;-44
2022/11/17 06:00:36;;;;;;;;;3.50;1.00;;;;;13.03;62.29;98508.88;5075805;27;45582;-47
2022/11/17 06:03:07;;;;;;;;;1.00;0.00;;;;;13.02;62.07;98497.56;5074601;27;45483;-43
2022/11/17 06:05:32;;;;;;;;;0.00;0.00;;;;;13.01;62.43;98509.00;5058428;28;45448;-47
2022/11/17 06:07:58;;;;;;;;;0.50;0.00;;;;;12.97;62.27;98509.34;5083646;27;68378;-44
2022/11/17 06:10:24;;;;;;;;;1.75;0.75;;;;;13.02;62.69;98517.72;5075412;28;46032;-45
2022/11/17 06:12:49;;;;;;;;;1.50;0.00;;;;;13.04;62.28;98524.53;5077778;27;45987;-44
2022/11/17 06:15:15;;;;;;;;;0.00;0.00;;;;;13.05;62.43;98522.75;5076457;27;45239;-43
2022/11/17 06:17:45;;;;;;;;;1.00;0.00;;;;;13.06;62.33;98522.63;5079835;27;45966;-43
2022/11/17 06:20:15;;;;;;;;;1.00;0.00;;;;;13.07;61.95;98524.31;5078454;27;45318;-44
2022/11/17 06:22:41;;;;;;;;;4.00;0.75;;;;;13.08;62.09;98517.28;5079919;27;45437;-45
2022/11/17 06:25:07;;;;;;;;;0.75;0.50;;;;;13.09;62.16;98529.47;5071976;27;45693;-43
2022/11/17 06:27:34;;;;;;;;;2.75;0.50;;;;;13.11;61.53;98515.25;5072927;28;46339;-44
2022/11/17 06:30:02;;;;;;;;;1.75;1.00;;;;;13.13;61.27;98514.31;5075810;28;67419;-43
2022/11/17 06:32:28;;;;;;;;;1.00;0.00;;;;;13.15;61.64;98513.25;5074923;28;45304;-45
2022/11/17 06:34:53;;;;;;;;;2.25;1.00;;;;;13.15;61.00;98504.53;5057278;28;45507;-44
2022/11/17 06:37:19;;;;;;;;;2.25;0.00;;;;;13.14;60.83;98514.22;5071580;27;48200;-44
2022/11/17 06:39:44;;;;;;;;;0.00;0.00;;;;;13.11;60.82;98517.88;5075987;28;45324;-47
2022/11/17 06:42:10;;;;;;;;;1.00;0.00;;;;;13.13;60.60;98524.81;5079757;27;59140;-47
2022/11/17 06:44:35;;;;;;;;;0.00;0.00;;;;;13.11;60.19;98514.44;5074918;28;45517;-46
2022/11/17 06:47:01;;;;;;;;;2.00;0.00;;;;;13.11;60.43;98523.13;5067498;27;56483;-46
2022/11/17 06:49:26;;;;;;;;;0.25;0.00;;;;;13.08;60.08;98520.75;5079432;28;45284;-45
2022/11/17 06:51:52;;;;;;;;;0.00;0.00;;;;;13.08;59.80;98526.00;5075913;27;45201;-45
2022/11/17 06:54:17;;;;;;;;;1.00;0.50;;;;;13.04;59.88;98528.97;5074233;27;45524;-45
2022/11/17 06:56:43;;;;;;;;;1.50;0.50;;;;;13.01;60.30;98526.53;5075294;27;72446;-43
2022/11/17 06:59:08;;;;;;;;;3.00;0.00;;;;;13.03;60.35;98527.25;5080120;27;45338;-46
2022/11/17 07:01:34;;;;;;;;;3.50;1.00;;;;;13.04;60.52;98532.41;5080191;27;45462;-49
2022/11/17 07:03:59;;;;;;;;;0.00;0.00;;;;;13.03;60.17;98545.66;5076655;28;52842;-45
2022/11/17 07:06:24;;;;;;;;;2.25;0.00;;;;;13.05;60.49;98541.13;5078158;27;47458;-46
2022/11/17 07:09:03;;;;;;;;;1.75;0.00;;;;;13.06;60.43;98542.81;5072730;28;66385;-45
2022/11/17 07:11:28;;;;;;;;;1.00;0.00;;;;;13.08;60.70;98546.16;5081306;28;45504;-46
2022/11/17 07:13:53;;;;;;;;;2.00;1.00;;;;;13.08;60.48;98547.00;5081604;27;70992;-44
2022/11/17 07:16:19;;;;;;;;;4.75;0.00;;;;;13.09;60.66;98550.47;5075242;27;68096;-45
2022/11/17 07:18:44;;;;;;;;;0.75;0.50;;;;;13.13;60.84;98556.34;5073115;27;45307;-42
2022/11/17 07:21:12;;;;;;;;;2.50;0.00;;;;;13.14;60.56;98550.13;5080563;27;51932;-45
2022/11/17 07:23:38;;;;;;;;;1.00;0.00;;;;;13.18;60.42;98546.34;5070309;27;45382;-45
2022/11/17 07:26:04;;;;;;;;;0.50;0.50;;;;;13.19;60.35;98548.00;5070500;27;46698;-48
2022/11/17 07:28:30;;;;;;;;;4.50;2.00;;;;;13.19;60.65;98553.25;5072348;27;45474;-45
2022/11/17 07:31:00;;;;;;;;;4.00;0.25;;;;;13.19;60.87;98556.72;5084078;27;45321;-49
2022/11/17 07:33:26;;;;;;;;;8.25;0.50;;;;;13.18;60.80;98554.22;5073138;28;46890;-44
2022/11/17 07:35:51;;;;;;;;;6.25;1.50;;;;;13.24;60.91;98561.63;5074129;27;75571;-50
2022/11/17 07:38:16;;;;;;;;;4.50;1.00;;;;;13.24;60.58;98562.50;5073636;27;45299;-49
2022/11/17 07:40:42;;;;;;;;;2.50;1.75;;;;;13.24;60.38;98561.63;5079319;27;57011;-44
2022/11/17 07:43:07;;;;;;;;;0.75;0.00;;;;;13.26;60.27;98575.50;5075548;27;45422;-49
2022/11/17 07:45:32;;;;;;;;;2.50;1.00;;;;;13.27;60.33;98569.28;5072695;27;46968;-50
2022/11/17 07:48:02;;;;;;;;;2.50;1.00;;;;;13.28;60.43;98576.25;5077391;27;45541;-49
2022/11/17 07:50:28;;;;;;;;;1.00;0.75;;;;;13.32;60.42;98582.97;5080000;27;45422;-48
2022/11/17 07:52:55;;;;;;;;;1.00;0.25;;;;;13.35;60.27;98584.53;5075174;27;45465;-51
2022/11/17 07:55:21;;;;;;;;;2.25;2.00;;;;;13.39;60.42;98594.72;5077375;28;47130;-45
2022/11/17 07:57:54;;;;;;;;;3.00;1.00;;;;;13.44;60.42;98589.13;5075575;28;45422;-45
2022/11/17 08:00:19;;;;;;;;;2.25;1.50;;;;;13.45;60.07;98596.88;5075602;27;45475;-46
2022/11/17 08:02:44;;;;;;;;;5.00;2.00;;;;;13.48;60.42;98601.06;5071474;28;45705;-44
2022/11/17 08:05:10;;;;;;;;;3.75;1.00;;;;;13.50;59.94;98612.31;5075327;27;47223;-44
2022/11/17 08:07:35;;;;;;;;;3.00;1.00;;;;;13.53;60.30;98596.31;5097743;27;45445;-44
2022/11/17 08:10:00;;;;;;;;;2.50;1.00;;;;;13.54;60.35;98602.41;5078843;27;45431;-47
2022/11/17 08:12:26;;;;;;;;;4.25;1.25;;;;;13.55;60.34;98596.22;5073660;28;45345;-45
2022/11/17 08:14:51;;;;;;;;;1.75;1.00;;;;;13.57;60.03;98604.81;5079555;27;72672;-44
2022/11/17 08:17:16;;;;;;;;;2.00;1.00;;;;;13.56;60.73;98618.91;5076573;28;71877;-44
2022/11/17 08:19:42;;;;;;;;;5.50;2.00;;;;;13.59;60.70;98609.00;5053747;27;45366;-44
2022/11/17 08:22:07;;;;;;;;;1.00;1.00;;;;;13.57;60.74;98608.28;5080600;27;73113;-45
2022/11/17 08:24:32;;;;;;;;;4.00;1.00;;;;;13.60;61.26;98615.94;5077240;27;46238;-44
2022/11/17 08:26:57;;;;;;;;;1.75;0.00;;;;;13.59;61.75;98621.31;5078434;27;45510;-45
2022/11/17 08:29:23;;;;;;;;;1.00;1.00;;;;;13.59;61.36;98627.41;5077659;28;68049;-44
2022/11/17 08:31:48;;;;;;;;;3.00;0.50;;;;;13.60;61.08;98621.19;5078968;27;45434;-46
2022/11/17 08:34:14;;;;;;;;;4.00;3.00;;;;;13.60;61.46;98618.56;5079731;28;56311;-46
2022/11/17 08:36:39;;;;;;;;;5.00;1.00;;;;;13.65;61.72;98620.84;5075124;27;48075;-44
2022/11/17 08:39:04;;;;;;;;;1.50;1.00;;;;;13.66;61.55;98623.38;5080923;27;59991;-45
2022/11/17 08:41:30;;;;;;;;;2.00;0.25;;;;;13.66;61.60;98618.09;5080416;27;73032;-43
2022/11/17 08:43:56;;;;;;;;;2.50;1.00;;;;;13.71;61.54;98617.78;5078063;27;47070;-44
2022/11/17 08:46:22;;;;;;;;;4.00;0.50;;;;;13.73;61.39;98623.75;5076857;28;45457;-44
2022/11/17 08:48:47;;;;;;;;;5.50;1.25;;;;;13.73;61.31;98621.13;5084100;27;45312;-45
2022/11/17 08:51:13;;;;;;;;;2.50;1.00;;;;;13.77;61.26;98617.31;5077634;27;71451;-46
2022/11/17 08:53:39;;;;;;;;;1.25;1.00;;;;;13.80;61.05;98627.59;5074144;28;46980;-45
2022/11/17 08:56:11;;;;;;;;;4.25;1.00;;;;;13.86;61.04;98627.16;5079890;27;73197;-47
2022/11/17 08:58:43;;;;;;;;;2.50;1.00;;;;;13.90;60.86;98632.19;5081997;27;45315;-46
2022/11/17 09:01:11;;;;;;;;;3.00;1.00;;;;;13.92;61.30;98625.88;5078854;27;45331;-48
2022/11/17 09:03:36;;;;;;;;;4.75;1.75;;;;;13.97;61.23;98615.84;5074051;28;45555;-44
2022/11/17 09:06:05;;;;;;;;;4.00;1.75;;;;;14.00;60.73;98615.59;5077918;27;45248;-47
2022/11/17 09:08:30;;;;;;;;;3.00;2.00;;;;;14.03;60.59;98622.44;5080225;28;45215;-44
2022/11/17 09:10:56;;;;;;;;;5.25;1.00;;;;;14.06;60.67;98622.22;5078754;28;45232;-46
2022/11/17 09:13:21;;;;;;;;;4.25;1.00;;;;;14.10;60.67;98626.28;5080297;27;46528;-44
2022/11/17 09:15:47;;;;;;;;;4.50;3.00;;;;;14.13;60.82;98636.56;5074589;28;67276;-47
2022/11/17 09:18:12;;;;;;;;;6.50;3.25;;;;;14.18;60.49;98642.31;5076101;27;45352;-44
2022/11/17 09:20:38;;;;;;;;;2.00;1.75;;;;;14.23;60.66;98636.69;5089264;27;45461;-46
2022/11/17 09:23:04;;;;;;;;;4.00;2.50;;;;;14.27;60.48;98640.78;5079389;27;45456;-44
2022/11/17 09:25:29;;;;;;;;;4.50;1.50;;;;;14.30;60.19;98647.59;5080816;27;45499;-45
2022/11/17 09:27:55;;;;;;;;;4.25;2.00;;;;;14.30;60.32;98630.00;5081189;27;45438;-45
2022/11/17 09:30:21;;;;;;;;;2.50;1.75;;;;;14.32;60.07;98641.25;5080867;27;45471;-49
2022/11/17 09:32:50;;;;;;;;;7.00;3.50;;;;;14.32;60.42;98637.78;5096352;27;46876;-44
2022/11/17 09:35:16;;;;;;;;;5.50;3.50;;;;;14.34;60.52;98638.50;5079094;27;45218;-47
2022/11/17 09:37:41;;;;;;;;;7.25;2.75;;;;;14.36;60.59;98644.50;5079640;28;45291;-48
2022/11/17 09:40:13;;;;;;;;;8.25;3.25;;;;;14.35;60.21;98648.09;5071595;27;58891;-45
2022/11/17 09:42:39;;;;;;;;;5.00;2.00;;;;;14.34;60.21;98647.25;5079563;28;46643;-44
2022/11/17 09:45:21;;;;;;;;;7.25;2.25;;;;;14.33;59.87;98650.84;5080527;27;45239;-43
2022/11/17 09:47:59;;;;;;;;;4.00;2.00;;;;;14.32;59.70;98648.31;5061020;28;45345;-43
2022/11/17 09:50:39;;;;;;;;;4.25;2.25;;;;;14.30;59.86;98661.59;5065998;27;45667;-45
2022/11/17 09:53:14;;;;;;;;;5.25;3.00;;;;;14.29;59.55;98661.69;5075950;27;45488;-47
2022/11/17 09:55:46;;;;;;;;;5.50;2.00;;;;;14.30;59.76;98655.50;5078773;28;45336;-44
2022/11/17 09:58:21;;;;;;;;;5.50;1.50;;;;;14.29;60.03;98662.56;5080101;27;45310;-44
2022/11/17 10:00:51;;;;;;;;;3.50;2.00;;;;;14.29;59.87;98669.59;5079096;28;45384;-46
2022/11/17 10:03:31;;;;;;;;;6.25;2.75;;;;;14.30;60.19;98669.47;5079962;27;45858;-48
2022/11/17 10:05:58;;;;;;;;;2.00;2.00;;;;;14.33;60.29;98671.06;5078783;28;45439;-43
2022/11/17 10:08:41;;;;;;;;;3.00;2.75;;;;;14.39;60.41;98665.31;5062341;28;45441;-44
2022/11/17 10:13:56;;;;;;;;;12.75;6.25;;;;;14.51;60.58;98663.53;5073170;27;45473;-43
2022/11/17 10:16:21;;;;;;;;;7.25;4.25;;;;;14.58;60.38;98676.16;5075930;28;45868;-46
2022/11/17 10:18:47;;;;;;;;;4.25;3.00;;;;;14.65;60.04;98684.41;5092344;27;45346;-45
2022/11/17 10:21:12;;;;;;;;;6.75;2.50;;;;;14.71;59.97;98689.19;5082719;27;72130;-48
2022/11/17 10:23:40;;;;;;;;;6.25;4.00;;;;;14.77;60.15;98680.00;5078203;27;75496;-44
2022/11/17 10:26:13;;;;;;;;;2.00;1.50;;;;;14.83;60.18;98679.53;5075400;28;45303;-44
2022/11/17 10:28:38;;;;;;;;;6.25;4.00;;;;;14.89;60.09;98671.16;5106834;27;45298;-47
2022/11/17 10:31:09;;;;;;;;;4.75;3.25;;;;;14.93;59.62;98677.84;5078351;27;53677;-46
2022/11/17 10:33:43;;;;;;;;;5.25;2.00;;;;;14.98;59.77;98666.97;5078385;27;52330;-44
2022/11/17 10:36:44;;;;;;;;;2.25;1.00;;;;;15.04;59.48;98658.56;5079495;27;45388;-44
2022/11/17 10:39:33;;;;;;;;;7.00;3.00;;;;;15.10;59.58;98665.16;5051143;28;45286;-45
2022/11/17 10:42:15;;;;;;;;;5.75;2.75;;;;;15.14;59.70;98656.88;5076670;28;45326;-43
2022/11/17 10:44:41;;;;;;;;;4.75;3.50;;;;;15.15;58.73;98655.09;5082831;27;47162;-45
2022/11/17 10:47:27;;;;;;;;;6.50;1.00;;;;;15.18;58.35;98657.47;5076573;27;73394;-49
2022/11/17 10:50:10;;;;;;;;;4.75;2.00;;;;;15.17;58.85;98654.03;5079520;27;45473;-44
2022/11/17 10:52:36;;;;;;;;;2.75;1.50;;;;;15.17;58.27;98663.69;5076816;28;45473;-47
2022/11/17 10:55:23;;;;;;;;;1.50;1.50;;;;;15.15;58.09;98655.09;5077123;28;73504;-45
2022/11/17 10:57:58;;;;;;;;;2.75;0.75;;;;;15.14;58.74;98656.88;5073292;28;45410;-45
2022/11/17 11:00:33;;;;;;;;;11.00;4.00;;;;;15.14;57.84;98646.34;5076546;27;45475;-46
2022/11/17 11:03:20;;;;;;;;;2.50;1.75;;;;;15.12;58.00;98650.06;5079344;28;45465;-45
2022/11/17 11:06:08;;;;;;;;;2.50;0.50;;;;;15.10;57.70;98650.19;5077393;27;45631;-45
2022/11/17 11:08:51;;;;;;;;;2.75;1.50;;;;;15.14;57.99;98640.25;5087101;27;45299;-43
2022/11/17 11:11:25;;;;;;;;;2.75;1.75;;;;;15.15;57.20;98641.91;5078047;27;45360;-47
2022/11/17 11:13:55;;;;;;;;;3.50;2.50;;;;;15.18;57.56;98641.66;5070748;28;45406;-44
2022/11/17 11:16:22;;;;;;;;;4.00;2.00;;;;;15.14;57.57;98641.09;5067265;27;46628;-44
2022/11/17 11:18:49;;;;;;;;;0.50;0.00;;;;;15.16;57.25;98644.44;5073858;27;46524;-44
2022/11/17 11:21:30;;;;;;;;;4.50;2.00;;;;;15.17;57.00;98637.34;5080049;27;69357;-45
2022/11/17 11:24:03;;;;;;;;;4.25;2.00;;;;;15.18;57.24;98631.13;5064013;28;45440;-43
2022/11/17 11:26:55;;;;;;;;;5.25;2.75;;;;;15.17;56.39;98648.75;5078585;27;47543;-45
2022/11/17 11:29:49;;;;;;;;;4.00;1.00;;;;;15.12;56.52;98643.00;5087735;27;45695;-50
2022/11/17 11:32:44;;;;;;;;;2.25;2.25;;;;;15.14;56.63;98632.34;5078783;27;45547;-43
2022/11/17 11:35:31;;;;;;;;;0.75;0.75;;;;;15.10;55.63;98642.28;5070905;27;45437;-49
2022/11/17 11:37:59;;;;;;;;;2.50;1.50;;;;;15.08;56.12;98641.56;5080157;27;46742;-47
2022/11/17 11:40:35;;;;;;;;;4.50;2.25;;;;;15.07;55.40;98641.66;5073291;28;45232;-46
2022/11/17 11:43:22;;;;;;;;;2.00;1.25;;;;;15.07;56.37;98642.53;5081239;27;46218;-44
2022/11/17 11:45:53;;;;;;;;;2.50;0.50;;;;;15.07;55.63;98652.22;5080957;27;45644;-43
2022/11/17 11:48:25;;;;;;;;;1.75;1.75;;;;;15.05;55.61;98640.97;5081515;27;46106;-42
2022/11/17 11:50:54;;;;;;;;;1.00;1.00;;;;;15.06;55.69;98650.56;5075330;27;45366;-42
2022/11/17 11:53:26;;;;;;;;;5.25;0.50;;;;;15.06;55.00;98635.56;5073076;28;45320;-45
2022/11/17 11:56:11;;;;;;;;;3.25;2.25;;;;;15.06;55.51;98629.47;5078503;27;45959;-42
2022/11/17 11:59:09;;;;;;;;;1.75;0.75;;;;;15.07;55.05;98634.63;5081311;27;45703;-43
2022/11/17 12:01:59;;;;;;;;;6.00;2.25;;;;;15.09;55.00;98637.97;5073042;28;45281;-42
2022/11/17 12:04:35;;;;;;;;;3.75;1.00;;;;;15.09;54.71;98640.59;5070595;27;45466;-43
2022/11/17 12:07:02;;;;;;;;;3.50;2.50;;;;;15.12;55.09;98639.50;5078515;27;48817;-43
2022/11/17 12:09:52;;;;;;;;;1.75;0.75;;;;;15.15;55.39;98640.09;5080959;27;51039;-45
2022/11/17 12:12:21;;;;;;;;;3.50;2.00;;;;;15.17;55.55;98643.47;5076739;27;45236;-44
2022/11/17 12:15:11;;;;;;;;;3.75;2.50;;;;;15.19;54.48;98651.22;5073676;27;45673;-46